DEBNY EDDW-EDXW
Flight info
| Callsign | DEBNY |
|---|---|
| Flight time | 0h 48m |
| Altitude | 7000 |
| Route | WSN1M WSN Y850 MUBZI M105 OMWEG/N0175F080 DCT BADOS DCT OLDIP |
| Aircraft | BE36/L-BDFGLORY/S |
Departure
| Time | 2026-05-06 18:22 |
|---|---|
| Airport | Bremen Airport (EDDW) |
Arrival
| Time | 2026-05-06 19:10 |
|---|---|
| Airport | Westerland Sylt Airport (EDXW) |
| Time | Latitude | Longitude | Altitude | Speed | Heading |
|---|---|---|---|---|---|
| 2026-05-06 17:53 | 53.05021 | 8.78123 | 16 ft | 0 kts | 8° |
| 2026-05-06 18:16 | 53.05022 | 8.78123 | 16 ft | 0 kts | 8° |
| 2026-05-06 18:19 | 53.05042 | 8.78154 | 16 ft | 7 kts | 65° |
| 2026-05-06 18:19 | 53.05002 | 8.78228 | 16 ft | 12 kts | 144° |
| 2026-05-06 18:19 | 53.04917 | 8.78284 | 16 ft | 12 kts | 143° |
| 2026-05-06 18:20 | 53.04876 | 8.78347 | 16 ft | 4 kts | 138° |
| 2026-05-06 18:20 | 53.04854 | 8.78394 | 16 ft | 8 kts | 115° |
| 2026-05-06 18:20 | 53.04851 | 8.78496 | 16 ft | 10 kts | 99° |
| 2026-05-06 18:20 | 53.04849 | 8.78609 | 16 ft | 9 kts | 85° |
| 2026-05-06 18:21 | 53.04808 | 8.78665 | 16 ft | 9 kts | 176° |
| 2026-05-06 18:21 | 53.04758 | 8.78671 | 16 ft | 4 kts | 179° |
| 2026-05-06 18:21 | 53.04716 | 8.78673 | 16 ft | 8 kts | 176° |
| 2026-05-06 18:21 | 53.04686 | 8.78708 | 16 ft | 0 kts | 87° |
| 2026-05-06 18:22 | 53.04690 | 8.78824 | 16 ft | 35 kts | 88° |
| 2026-05-06 18:22 | 53.04718 | 8.79586 | 68 ft | 86 kts | 93° |
| 2026-05-06 18:22 | 53.04657 | 8.80604 | 368 ft | 87 kts | 92° |
| 2026-05-06 18:22 | 53.04676 | 8.81556 | 681 ft | 82 kts | 73° |
| 2026-05-06 18:23 | 53.04755 | 8.82496 | 1065 ft | 82 kts | 81° |
| 2026-05-06 18:23 | 53.04783 | 8.83415 | 1415 ft | 78 kts | 81° |
| 2026-05-06 18:23 | 53.04805 | 8.84297 | 1769 ft | 75 kts | 79° |
| 2026-05-06 18:23 | 53.04825 | 8.85154 | 2099 ft | 75 kts | 81° |
| 2026-05-06 18:24 | 53.04847 | 8.86059 | 2427 ft | 81 kts | 82° |
| 2026-05-06 18:24 | 53.04862 | 8.87000 | 2780 ft | 82 kts | 83° |
| 2026-05-06 18:24 | 53.04881 | 8.87958 | 3130 ft | 83 kts | 83° |
| 2026-05-06 18:24 | 53.04900 | 8.88910 | 3469 ft | 83 kts | 83° |
| 2026-05-06 18:25 | 53.04919 | 8.89886 | 3815 ft | 84 kts | 84° |
| 2026-05-06 18:25 | 53.04939 | 8.90856 | 4156 ft | 84 kts | 84° |
| 2026-05-06 18:25 | 53.04956 | 8.91814 | 4482 ft | 84 kts | 84° |
| 2026-05-06 18:25 | 53.04978 | 8.92841 | 4664 ft | 99 kts | 85° |
| 2026-05-06 18:26 | 53.04997 | 8.94101 | 4721 ft | 120 kts | 86° |
| 2026-05-06 18:26 | 53.05023 | 8.95613 | 4713 ft | 136 kts | 86° |
| 2026-05-06 18:26 | 53.05208 | 8.97119 | 4919 ft | 134 kts | 63° |
| 2026-05-06 18:26 | 53.05845 | 8.98234 | 5106 ft | 136 kts | 34° |
| 2026-05-06 18:27 | 53.06765 | 8.98642 | 5285 ft | 140 kts | 8° |
| 2026-05-06 18:27 | 53.07731 | 8.98781 | 5464 ft | 139 kts | 11° |
| 2026-05-06 18:27 | 53.08698 | 8.98997 | 5666 ft | 140 kts | 12° |
| 2026-05-06 18:27 | 53.09668 | 8.99205 | 5866 ft | 141 kts | 11° |
| 2026-05-06 18:28 | 53.10633 | 8.99406 | 6058 ft | 141 kts | 11° |
| 2026-05-06 18:28 | 53.11608 | 8.99603 | 6246 ft | 141 kts | 10° |
| 2026-05-06 18:28 | 53.12590 | 8.99698 | 6413 ft | 143 kts | 359° |
| 2026-05-06 18:28 | 53.13540 | 8.99180 | 6570 ft | 144 kts | 342° |
| 2026-05-06 18:29 | 53.14483 | 8.98634 | 6738 ft | 143 kts | 347° |
| 2026-05-06 18:29 | 53.15428 | 8.98142 | 6865 ft | 144 kts | 346° |
| 2026-05-06 18:29 | 53.16416 | 8.97626 | 6888 ft | 152 kts | 346° |
| 2026-05-06 18:29 | 53.17426 | 8.97084 | 6898 ft | 156 kts | 345° |
| 2026-05-06 18:30 | 53.18475 | 8.96510 | 6899 ft | 161 kts | 345° |
| 2026-05-06 18:30 | 53.19554 | 8.95915 | 6901 ft | 165 kts | 345° |
| 2026-05-06 18:30 | 53.20650 | 8.95306 | 6901 ft | 168 kts | 345° |
| 2026-05-06 18:30 | 53.21763 | 8.94689 | 6903 ft | 169 kts | 345° |
| 2026-05-06 18:31 | 53.22879 | 8.94068 | 6906 ft | 170 kts | 345° |
| 2026-05-06 18:31 | 53.24003 | 8.93442 | 6905 ft | 170 kts | 345° |
| 2026-05-06 18:31 | 53.25127 | 8.92815 | 6903 ft | 170 kts | 345° |
| 2026-05-06 18:31 | 53.26237 | 8.92199 | 6902 ft | 170 kts | 345° |
| 2026-05-06 18:32 | 53.27361 | 8.91572 | 6905 ft | 170 kts | 345° |
| 2026-05-06 18:32 | 53.28484 | 8.90948 | 6905 ft | 170 kts | 345° |
| 2026-05-06 18:32 | 53.29605 | 8.90323 | 6905 ft | 170 kts | 345° |
| 2026-05-06 18:32 | 53.30729 | 8.89698 | 6906 ft | 170 kts | 345° |
| 2026-05-06 18:33 | 53.31854 | 8.89070 | 6904 ft | 170 kts | 345° |
| 2026-05-06 18:33 | 53.32964 | 8.88450 | 6904 ft | 170 kts | 345° |
| 2026-05-06 18:33 | 53.34091 | 8.87846 | 6905 ft | 169 kts | 350° |
| 2026-05-06 18:33 | 53.35241 | 8.87870 | 6905 ft | 165 kts | 18° |
| 2026-05-06 18:34 | 53.36285 | 8.88642 | 6908 ft | 164 kts | 26° |
| 2026-05-06 18:34 | 53.37342 | 8.89386 | 6906 ft | 165 kts | 24° |
| 2026-05-06 18:34 | 53.38407 | 8.90114 | 6908 ft | 165 kts | 24° |
| 2026-05-06 18:34 | 53.39463 | 8.90847 | 6907 ft | 164 kts | 24° |
| 2026-05-06 18:35 | 53.40512 | 8.91582 | 6908 ft | 163 kts | 25° |
| 2026-05-06 18:35 | 53.41554 | 8.92317 | 6902 ft | 162 kts | 24° |
| 2026-05-06 18:35 | 53.42580 | 8.93044 | 6903 ft | 162 kts | 24° |
| 2026-05-06 18:35 | 53.43617 | 8.93780 | 6904 ft | 162 kts | 24° |
| 2026-05-06 18:36 | 53.44652 | 8.94513 | 6906 ft | 161 kts | 24° |
| 2026-05-06 18:36 | 53.45760 | 8.94782 | 6907 ft | 164 kts | 358° |
| 2026-05-06 18:36 | 53.46891 | 8.94539 | 6905 ft | 164 kts | 354° |
| 2026-05-06 18:36 | 53.48020 | 8.94244 | 6908 ft | 164 kts | 354° |
| 2026-05-06 18:37 | 53.49135 | 8.93972 | 6904 ft | 163 kts | 354° |
| 2026-05-06 18:37 | 53.49899 | 8.93796 | 6906 ft | 164 kts | 355° |
| 2026-05-06 18:37 | 53.51398 | 8.93472 | 6908 ft | 164 kts | 355° |
| 2026-05-06 18:37 | 53.52529 | 8.93236 | 6907 ft | 163 kts | 355° |
| 2026-05-06 18:38 | 53.53659 | 8.93003 | 6908 ft | 164 kts | 356° |
| 2026-05-06 18:38 | 53.54794 | 8.92771 | 6909 ft | 164 kts | 355° |
| 2026-05-06 18:38 | 53.55929 | 8.92540 | 6907 ft | 164 kts | 355° |
| 2026-05-06 18:38 | 53.57050 | 8.92311 | 6907 ft | 164 kts | 355° |
| 2026-05-06 18:39 | 53.58186 | 8.92079 | 6907 ft | 164 kts | 355° |
| 2026-05-06 18:39 | 53.59322 | 8.91846 | 6904 ft | 164 kts | 355° |
| 2026-05-06 18:39 | 53.60459 | 8.91613 | 6909 ft | 164 kts | 355° |
| 2026-05-06 18:40 | 53.62736 | 8.91147 | 6908 ft | 165 kts | 355° |
| 2026-05-06 18:40 | 53.63875 | 8.90914 | 6905 ft | 165 kts | 355° |
| 2026-05-06 18:40 | 53.65015 | 8.90681 | 6906 ft | 165 kts | 355° |
| 2026-05-06 18:40 | 53.66141 | 8.90450 | 6905 ft | 165 kts | 355° |
| 2026-05-06 18:41 | 53.67275 | 8.90216 | 6903 ft | 164 kts | 356° |
| 2026-05-06 18:41 | 53.68404 | 8.89984 | 6905 ft | 163 kts | 356° |
| 2026-05-06 18:41 | 53.69534 | 8.89752 | 6899 ft | 163 kts | 355° |
| 2026-05-06 18:41 | 53.70656 | 8.89521 | 6904 ft | 162 kts | 356° |
| 2026-05-06 18:42 | 53.71775 | 8.89291 | 6901 ft | 161 kts | 355° |
| 2026-05-06 18:42 | 53.72889 | 8.89062 | 6901 ft | 161 kts | 356° |
| 2026-05-06 18:42 | 53.73998 | 8.88834 | 6894 ft | 160 kts | 356° |
| 2026-05-06 18:42 | 53.75106 | 8.88606 | 6892 ft | 160 kts | 356° |
| 2026-05-06 18:43 | 53.76210 | 8.88379 | 6902 ft | 160 kts | 356° |
| 2026-05-06 18:43 | 53.77305 | 8.88154 | 6905 ft | 161 kts | 356° |
| 2026-05-06 18:43 | 53.78416 | 8.87926 | 6904 ft | 161 kts | 356° |
| 2026-05-06 18:43 | 53.79529 | 8.87696 | 6904 ft | 161 kts | 356° |
| 2026-05-06 18:44 | 53.80644 | 8.87465 | 6901 ft | 161 kts | 356° |
| 2026-05-06 18:44 | 53.81754 | 8.87236 | 6901 ft | 161 kts | 356° |
| 2026-05-06 18:44 | 53.82866 | 8.87007 | 6897 ft | 161 kts | 356° |
| 2026-05-06 18:44 | 53.83976 | 8.86776 | 6896 ft | 161 kts | 356° |
| 2026-05-06 18:45 | 53.85073 | 8.86549 | 6897 ft | 160 kts | 356° |
| 2026-05-06 18:45 | 53.86180 | 8.86320 | 6899 ft | 160 kts | 356° |
| 2026-05-06 18:45 | 53.87291 | 8.86090 | 6901 ft | 161 kts | 356° |
| 2026-05-06 18:45 | 53.88027 | 8.85938 | 6904 ft | 161 kts | 356° |
| 2026-05-06 18:46 | 53.89510 | 8.85629 | 6902 ft | 160 kts | 356° |
| 2026-05-06 18:46 | 53.90618 | 8.85399 | 6905 ft | 160 kts | 356° |
| 2026-05-06 18:46 | 53.91727 | 8.85170 | 6907 ft | 160 kts | 356° |
| 2026-05-06 18:46 | 53.92836 | 8.84939 | 6903 ft | 160 kts | 357° |
| 2026-05-06 18:47 | 53.93929 | 8.84711 | 6910 ft | 161 kts | 356° |
| 2026-05-06 18:47 | 53.95041 | 8.84480 | 6912 ft | 161 kts | 356° |
| 2026-05-06 18:47 | 53.96154 | 8.84249 | 6911 ft | 161 kts | 356° |
| 2026-05-06 18:47 | 53.97268 | 8.84015 | 6908 ft | 161 kts | 356° |
| 2026-05-06 18:48 | 53.98386 | 8.83782 | 6914 ft | 161 kts | 356° |
| 2026-05-06 18:48 | 53.99500 | 8.83550 | 6906 ft | 161 kts | 356° |
| 2026-05-06 18:48 | 54.00613 | 8.83318 | 6910 ft | 161 kts | 356° |
| 2026-05-06 18:48 | 54.01724 | 8.83086 | 6911 ft | 161 kts | 356° |
| 2026-05-06 18:49 | 54.02820 | 8.82858 | 6916 ft | 161 kts | 356° |
| 2026-05-06 18:49 | 54.03934 | 8.82625 | 6919 ft | 161 kts | 357° |
| 2026-05-06 18:49 | 54.05047 | 8.82395 | 6919 ft | 161 kts | 356° |
| 2026-05-06 18:49 | 54.06160 | 8.82161 | 6922 ft | 161 kts | 357° |
| 2026-05-06 18:50 | 54.07274 | 8.81931 | 6915 ft | 161 kts | 356° |
| 2026-05-06 18:50 | 54.08389 | 8.81697 | 6922 ft | 161 kts | 356° |
| 2026-05-06 18:50 | 54.09506 | 8.81462 | 6927 ft | 163 kts | 356° |
| 2026-05-06 18:50 | 54.10620 | 8.81231 | 6924 ft | 164 kts | 356° |
| 2026-05-06 18:51 | 54.11752 | 8.80993 | 6921 ft | 164 kts | 356° |
| 2026-05-06 18:51 | 54.12888 | 8.80754 | 6930 ft | 165 kts | 356° |
| 2026-05-06 18:51 | 54.14029 | 8.80516 | 6922 ft | 165 kts | 357° |
| 2026-05-06 18:51 | 54.15170 | 8.80275 | 6925 ft | 165 kts | 356° |
| 2026-05-06 18:52 | 54.16317 | 8.80034 | 6930 ft | 166 kts | 356° |
| 2026-05-06 18:52 | 54.17464 | 8.79793 | 6928 ft | 166 kts | 356° |
| 2026-05-06 18:52 | 54.18609 | 8.79554 | 6921 ft | 166 kts | 355° |
| 2026-05-06 18:52 | 54.19755 | 8.79312 | 6928 ft | 166 kts | 355° |
| 2026-05-06 18:53 | 54.20517 | 8.79152 | 6922 ft | 166 kts | 355° |
| 2026-05-06 18:53 | 54.22043 | 8.78830 | 6931 ft | 167 kts | 355° |
| 2026-05-06 18:53 | 54.23194 | 8.78587 | 6930 ft | 167 kts | 355° |
| 2026-05-06 18:53 | 54.24343 | 8.78345 | 6923 ft | 166 kts | 355° |
| 2026-05-06 18:54 | 54.25120 | 8.78180 | 6931 ft | 167 kts | 355° |
| 2026-05-06 18:54 | 54.26257 | 8.77940 | 6931 ft | 167 kts | 355° |
| 2026-05-06 18:54 | 54.27409 | 8.77697 | 6932 ft | 166 kts | 355° |
| 2026-05-06 18:54 | 54.28560 | 8.77453 | 6933 ft | 166 kts | 355° |
| 2026-05-06 18:55 | 54.29708 | 8.77210 | 6934 ft | 166 kts | 355° |
| 2026-05-06 18:55 | 54.30857 | 8.76967 | 6926 ft | 166 kts | 355° |
| 2026-05-06 18:55 | 54.32009 | 8.76724 | 6923 ft | 166 kts | 355° |
| 2026-05-06 18:55 | 54.33159 | 8.76480 | 6920 ft | 166 kts | 355° |
| 2026-05-06 18:56 | 54.34302 | 8.76237 | 6936 ft | 166 kts | 355° |
| 2026-05-06 18:56 | 54.35450 | 8.75994 | 6937 ft | 166 kts | 355° |
| 2026-05-06 18:56 | 54.36596 | 8.75751 | 6934 ft | 166 kts | 355° |
| 2026-05-06 18:56 | 54.37726 | 8.75511 | 6937 ft | 166 kts | 355° |
| 2026-05-06 18:57 | 54.38870 | 8.75268 | 6935 ft | 166 kts | 355° |
| 2026-05-06 18:57 | 54.40021 | 8.75023 | 6860 ft | 170 kts | 355° |
| 2026-05-06 18:57 | 54.41227 | 8.74773 | 6661 ft | 177 kts | 356° |
| 2026-05-06 18:57 | 54.42452 | 8.74516 | 6465 ft | 177 kts | 356° |
| 2026-05-06 18:58 | 54.43667 | 8.74259 | 6257 ft | 175 kts | 355° |
| 2026-05-06 18:58 | 54.44872 | 8.73999 | 6042 ft | 174 kts | 355° |
| 2026-05-06 18:58 | 54.46068 | 8.73742 | 5831 ft | 173 kts | 355° |
| 2026-05-06 18:58 | 54.47262 | 8.73485 | 5620 ft | 172 kts | 355° |
| 2026-05-06 18:59 | 54.48452 | 8.73230 | 5412 ft | 172 kts | 355° |
| 2026-05-06 18:59 | 54.49639 | 8.72975 | 5201 ft | 172 kts | 355° |
| 2026-05-06 18:59 | 54.50809 | 8.72725 | 5032 ft | 170 kts | 355° |
| 2026-05-06 18:59 | 54.51952 | 8.72478 | 5005 ft | 162 kts | 355° |
| 2026-05-06 19:00 | 54.53046 | 8.72242 | 4990 ft | 155 kts | 355° |
| 2026-05-06 19:00 | 54.54102 | 8.72016 | 4992 ft | 151 kts | 355° |
| 2026-05-06 19:00 | 54.55147 | 8.71791 | 4995 ft | 152 kts | 355° |
| 2026-05-06 19:00 | 54.56211 | 8.71565 | 4997 ft | 155 kts | 355° |
| 2026-05-06 19:01 | 54.57286 | 8.71336 | 4994 ft | 157 kts | 355° |
| 2026-05-06 19:01 | 54.58372 | 8.71105 | 4992 ft | 158 kts | 355° |
| 2026-05-06 19:01 | 54.59461 | 8.70871 | 5030 ft | 155 kts | 355° |
| 2026-05-06 19:01 | 54.60558 | 8.70639 | 4886 ft | 164 kts | 355° |
| 2026-05-06 19:02 | 54.61716 | 8.70394 | 4680 ft | 168 kts | 355° |
| 2026-05-06 19:02 | 54.62843 | 8.69924 | 4466 ft | 170 kts | 332° |
| 2026-05-06 19:02 | 54.63798 | 8.68707 | 4255 ft | 171 kts | 324° |
| 2026-05-06 19:02 | 54.64726 | 8.67411 | 4052 ft | 171 kts | 323° |
| 2026-05-06 19:03 | 54.65641 | 8.66088 | 3842 ft | 171 kts | 323° |
| 2026-05-06 19:03 | 54.66546 | 8.64749 | 3636 ft | 172 kts | 322° |
| 2026-05-06 19:03 | 54.67441 | 8.63397 | 3436 ft | 174 kts | 326° |
| 2026-05-06 19:03 | 54.68392 | 8.62092 | 3235 ft | 174 kts | 329° |
| 2026-05-06 19:04 | 54.69379 | 8.60901 | 3105 ft | 170 kts | 332° |
| 2026-05-06 19:04 | 54.70353 | 8.59799 | 3042 ft | 164 kts | 329° |
| 2026-05-06 19:04 | 54.71287 | 8.58722 | 3015 ft | 158 kts | 332° |
| 2026-05-06 19:04 | 54.72198 | 8.57699 | 3004 ft | 154 kts | 330° |
| 2026-05-06 19:05 | 54.73056 | 8.56657 | 3000 ft | 151 kts | 329° |
| 2026-05-06 19:05 | 54.73908 | 8.55609 | 3000 ft | 149 kts | 330° |
| 2026-05-06 19:05 | 54.74737 | 8.54531 | 3000 ft | 148 kts | 328° |
| 2026-05-06 19:05 | 54.75567 | 8.53484 | 3001 ft | 147 kts | 329° |
| 2026-05-06 19:06 | 54.76389 | 8.52436 | 3004 ft | 146 kts | 330° |
| 2026-05-06 19:06 | 54.77222 | 8.51426 | 3003 ft | 145 kts | 331° |
| 2026-05-06 19:06 | 54.78054 | 8.50437 | 3000 ft | 147 kts | 329° |
| 2026-05-06 19:06 | 54.78927 | 8.49405 | 2863 ft | 158 kts | 330° |
| 2026-05-06 19:07 | 54.79819 | 8.48257 | 2650 ft | 165 kts | 327° |
| 2026-05-06 19:07 | 54.80766 | 8.47106 | 2428 ft | 167 kts | 328° |
| 2026-05-06 19:07 | 54.81721 | 8.45931 | 2197 ft | 169 kts | 327° |
| 2026-05-06 19:07 | 54.82663 | 8.44724 | 1957 ft | 168 kts | 329° |
| 2026-05-06 19:08 | 54.83619 | 8.43554 | 1715 ft | 167 kts | 330° |
| 2026-05-06 19:08 | 54.84561 | 8.42428 | 1474 ft | 162 kts | 327° |
| 2026-05-06 19:08 | 54.85459 | 8.41292 | 1247 ft | 156 kts | 329° |
| 2026-05-06 19:08 | 54.86323 | 8.40223 | 1030 ft | 149 kts | 329° |
| 2026-05-06 19:09 | 54.87113 | 8.39267 | 854 ft | 130 kts | 329° |
| 2026-05-06 19:09 | 54.87819 | 8.38401 | 691 ft | 119 kts | 328° |
| 2026-05-06 19:09 | 54.88459 | 8.37588 | 528 ft | 107 kts | 328° |
| 2026-05-06 19:09 | 54.88971 | 8.36917 | 406 ft | 81 kts | 331° |
| 2026-05-06 19:10 | 54.89421 | 8.36362 | 262 ft | 80 kts | 330° |
| 2026-05-06 19:10 | 54.89879 | 8.35807 | 204 ft | 83 kts | 330° |
| 2026-05-06 19:10 | 54.90339 | 8.35250 | 75 ft | 69 kts | 332° |
| 2026-05-06 19:10 | 54.90665 | 8.34863 | 51 ft | 46 kts | 324° |
| 2026-05-06 19:11 | 54.90910 | 8.34562 | 54 ft | 40 kts | 324° |
| 2026-05-06 19:11 | 54.91101 | 8.34324 | 55 ft | 25 kts | 326° |
| 2026-05-06 19:11 | 54.91243 | 8.34147 | 54 ft | 21 kts | 328° |
| 2026-05-06 19:11 | 54.91305 | 8.34001 | 52 ft | 17 kts | 257° |
| 2026-05-06 19:12 | 54.91245 | 8.33799 | 50 ft | 21 kts | 245° |
| 2026-05-06 19:12 | 54.91158 | 8.33553 | 50 ft | 22 kts | 239° |
| 2026-05-06 19:12 | 54.91078 | 8.33326 | 51 ft | 24 kts | 242° |
| 2026-05-06 19:12 | 54.91039 | 8.33204 | 51 ft | 15 kts | 239° |
| 2026-05-06 19:13 | 54.91010 | 8.33018 | 53 ft | 15 kts | 292° |
| 2026-05-06 19:13 | 54.91075 | 8.32878 | 52 ft | 18 kts | 310° |
| 2026-05-06 19:13 | 54.91140 | 8.32747 | 52 ft | 16 kts | 319° |
| 2026-05-06 19:13 | 54.91202 | 8.32633 | 52 ft | 11 kts | 318° |
| 2026-05-06 19:14 | 54.91238 | 8.32559 | 52 ft | 5 kts | 259° |
| 2026-05-06 19:14 | 54.91230 | 8.32518 | 52 ft | 0 kts | 239° |